• Join FlightAware (Why Join?)
  • Login
  • US Flag 
03:13PM EDT


 

Airport Tracker/Info


-or-


 

Live Flight TrackerFlight Track Log ✈ N825TD ✈ 09-Jul-2013 ✈ KDAB - KAPF

Flight Track Log - Related Links

Times and Time Zones

All times are in EDT time to prevent confusion due to time zone crossing. See the N825TD flight status page for this flight to view local times or setup timezone preferences in your user account.

Time Position Orientation Groundspeed Altitude Reporting Facility
EDT Latitude Longitude Course Direction KTS MPH feet Rate Location/Type
01:59AM 29.1500 -81.0167 199° South 121 139 3,800  Level Orlando TRACON
02:00AM 29.1167 -81.0333 204° Southwest 121 139 4,800 900 Climbing Orlando TRACON
02:01AM 29.1000 -81.0500 221° Southwest 122 140 5,700 600 Climbing Orlando TRACON
02:02AM 29.0833 -81.1000 249° West 138 159 6,000 120 Climbing Orlando TRACON
02:03AM 29.0500 -81.1333 221° Southwest 160 184 6,000  Level Orlando TRACON
02:04AM 29.0333 -81.1833 249° West 159 183 6,000  Level Orlando TRACON
02:05AM 29.0000 -81.2167 221° Southwest 162 186 6,000  Level Orlando TRACON
02:06AM 28.9833 -81.2667 249° West 159 183 6,000 -60 Level Orlando TRACON
02:07AM 28.9500 -81.2833 204° Southwest 159 183 5,900 -60 Descending Orlando TRACON
02:08AM 28.9000 -81.2833 180° South 158 182 5,900  Level Orlando TRACON
02:09AM 28.8500 -81.3000 196° South 157 181 6,000  Climbing Orlando TRACON
02:10AM 28.8167 -81.3000 180° South 156 180 6,000  Level Orlando TRACON
02:11AM 28.7667 -81.3167 196° South 156 180 6,000  Level Orlando TRACON
02:12AM 28.7333 -81.3167 180° South 157 181 6,000  Level Orlando TRACON
02:13AM 28.6833 -81.3333 196° South 157 181 6,000  Level Orlando TRACON
02:14AM 28.6500 -81.3333 180° South 157 181 6,000  Level Orlando TRACON
02:15AM 28.6000 -81.3500 196° South 156 180 6,000  Level Orlando TRACON
02:16AM 28.5500 -81.3500 180° South 157 181 6,000  Level Orlando TRACON
02:17AM 28.5167 -81.3500 180° South 157 181 6,000  Level Orlando TRACON
02:18AM 28.4667 -81.3667 196° South 156 180 6,000 -60 Level Orlando TRACON
02:19AM 28.4333 -81.3667 180° South 158 182 5,900  Descending Orlando TRACON
02:20AM 28.3833 -81.3833 196° South 156 180 6,000  Climbing Orlando TRACON
02:21AM 28.3333 -81.3833 180° South 157 181 6,000  Level Orlando TRACON
02:22AM 28.3000 -81.4000 204° Southwest 156 180 6,000  Level Orlando TRACON
02:23AM 28.2500 -81.4000 180° South 157 181 6,000  Level Orlando TRACON
02:24AM 28.2167 -81.4167 204° Southwest 160 184 6,000  Level Orlando TRACON
02:25AM 28.1667 -81.4167 180° South 159 183 6,000 -60 Level Orlando TRACON
02:27AM 28.0983 -81.4344 193° South 171 197 5,900  Descending Miami Center
02:28AM 28.0544 -81.4419 189° South 171 197 6,000  Climbing Miami Center
02:29AM 28.0103 -81.4497 189° South 160 184 6,000  Level Miami Center
02:30AM 27.9661 -81.4572 189° South 160 184 6,000  Level Miami Center
02:31AM 27.9200 -81.4647 188° South 160 184 6,000  Level Miami Center
02:32AM 27.8781 -81.4725 189° South 160 184 6,000  Level Miami Center
02:33AM 27.8339 -81.4800 189° South 160 184 6,000  Level Miami Center
02:34AM 27.7900 -81.4878 189° South 160 184 6,000  Level Miami Center
02:35AM 27.7478 -81.4978 192° South 160 184 6,000  Level Miami Center
02:36AM 27.7036 -81.5075 191° South 165 190 6,000  Level Miami Center
02:37AM 27.6597 -81.5128 186° South 165 190 6,000  Level Miami Center
02:38AM 27.6156 -81.5206 189° South 160 184 6,000  Level Miami Center
02:39AM 27.5717 -81.5281 189° South 160 184 6,000  Level Miami Center
02:40AM 27.5294 -81.5381 192° South 160 184 6,000  Level Miami Center
02:41AM 27.4875 -81.5433 186° South 160 184 6,000  Level Miami Center
02:42AM 27.4433 -81.5531 191° South 160 184 6,000  Level Miami Center
02:43AM 27.3994 -81.5608 189° South 160 184 6,000  Level Miami Center
02:44AM 27.3575 -81.5683 189° South 160 184 6,000  Level Miami Center
02:45AM 27.3133 -81.5736 186° South 160 184 6,000  Level Miami Center
02:46AM 27.2692 -81.5836 191° South 160 184 6,000  Level Miami Center
02:47AM 27.2250 -81.5911 189° South 160 184 6,000  Level Miami Center
02:48AM 27.1811 -81.5986 189° South 160 184 6,000  Level Miami Center
02:49AM 27.1369 -81.6061 189° South 160 184 6,000  Level Miami Center
02:50AM 27.0950 -81.6136 189° South 160 184 6,000  Level Miami Center
02:51AM 27.0508 -81.6236 191° South 160 184 6,000  Level Miami Center
02:52AM 27.0067 -81.6311 189° South 160 184 6,000  Level Miami Center
02:53AM 26.9606 -81.6383 188° South 160 184 6,000  Level Miami Center
02:54AM 26.9164 -81.6461 189° South 160 184 6,000  Level Miami Center
02:55AM 26.8725 -81.6536 189° South 160 184 6,000  Level Miami Center
02:56AM 26.8261 -81.6608 188° South 160 184 6,000  Level Miami Center
02:57AM 26.7822 -81.6683 189° South 160 184 6,000  Level Miami Center
02:58AM 26.7444 -81.6739 187° South 160 184 6,000  Level Miami Center
02:59AM 26.6981 -81.6836 191° South 160 184 6,000  Level Miami Center
03:00AM 26.6539 -81.6933 191° South 160 184 6,000  Level Miami Center
03:01AM 26.6097 -81.7031 191° South 160 184 6,000 -240 Level Miami Center
03:02AM 26.5658 -81.7083 186° South 160 184 5,600 -480 Descending Miami Center
03:03AM 26.5197 -81.7133 186° South 160 184 5,100 -540 Descending Miami Center
03:04AM 26.4714 -81.7206 188° South 160 184 4,600 -600 Descending Miami Center
03:05AM 26.4272 -81.7306 191° South 160 184 4,000 -600 Descending Miami Center
03:06AM 26.3789 -81.7378 188° South 160 184 3,500 -540 Descending Miami Center
03:07AM 26.3411 -81.7453 190° South 160 184 3,000 -540 Descending Miami Center